Time;durP1;ratioP1;P1;durP2;ratioP2;P2;SDS_P1;SDS_P2;PMS_P1;PMS_P2;Temp;Humidity;BMP_temperature;BMP_pressure;BME280_temperature;BME280_humidity;BME280_pressure;Samples;Min_cycle;Max_cycle;Signal;HPM_P1;HPM_P2
2021/07/06 00:00:23;;;;;;;3.72;2.20;;;;;;;18.30;89.33;95882.66;5036392;28;20197;-69
2021/07/06 00:02:51;;;;;;;4.65;2.03;;;;;;;18.36;88.69;95880.66;5036826;28;20205;-69
2021/07/06 00:05:19;;;;;;;5.88;1.95;;;;;;;18.28;88.25;95884.72;5036307;28;20294;-69
2021/07/06 00:07:47;;;;;;;12.18;2.30;;;;;;;17.91;89.28;95886.78;5035250;28;20232;-69
2021/07/06 00:10:15;;;;;;;9.95;2.10;;;;;;;17.85;89.99;95889.56;5036610;28;20201;-69
2021/07/06 00:12:42;;;;;;;7.32;2.15;;;;;;;18.01;87.89;95880.88;5036704;28;20570;-69
2021/07/06 00:15:11;;;;;;;7.18;1.80;;;;;;;18.06;87.76;95875.66;5036219;28;20206;-69
2021/07/06 00:17:38;;;;;;;2.38;1.95;;;;;;;18.04;89.58;95875.91;5035629;28;20217;-69
2021/07/06 00:20:07;;;;;;;8.27;2.15;;;;;;;18.03;90.47;95879.59;5036436;28;20208;-69
2021/07/06 00:22:35;;;;;;;6.38;2.80;;;;;;;17.76;90.98;95874.94;5036628;28;20213;-69
2021/07/06 00:25:01;;;;;;;6.00;1.75;;;;;;;17.69;89.50;95870.75;5036618;28;20212;-69
2021/07/06 00:27:27;;;;;;;6.65;2.25;;;;;;;17.92;87.91;95874.25;5037972;28;20229;-69
2021/07/06 00:29:54;;;;;;;3.92;1.90;;;;;;;17.81;89.84;95865.22;5039540;28;20212;-69
2021/07/06 00:32:20;;;;;;;5.72;1.95;;;;;;;17.85;90.06;95865.56;5039911;28;20197;-69
2021/07/06 00:34:47;;;;;;;4.07;1.90;;;;;;;17.85;89.08;95865.56;5040326;28;20212;-69
2021/07/06 00:37:13;;;;;;;10.40;2.00;;;;;;;17.52;89.34;95873.25;5038872;28;20666;-69
2021/07/06 00:39:41;;;;;;;5.10;1.50;;;;;;;17.84;87.84;95863.94;5039454;28;20217;-69
2021/07/06 00:42:09;;;;;;;6.80;1.92;;;;;;;17.84;88.75;95862.06;5039831;28;20208;-69
2021/07/06 00:44:36;;;;;;;6.00;1.90;;;;;;;17.77;89.91;95858.72;5039904;28;20579;-69
2021/07/06 00:47:04;;;;;;;4.00;1.52;;;;;;;17.85;88.41;95854.91;5039164;28;20224;-69
2021/07/06 00:49:31;;;;;;;6.55;1.58;;;;;;;17.63;88.10;95845.84;5039007;28;20221;-69
2021/07/06 00:51:57;;;;;;;9.27;1.60;;;;;;;17.69;86.91;95850.22;5039782;28;20501;-69
2021/07/06 00:54:24;;;;;;;7.25;1.75;;;;;;;17.77;86.92;95837.41;5039582;28;20205;-69
2021/07/06 00:56:53;;;;;;;4.40;2.00;;;;;;;17.82;88.48;95834.84;5041297;28;20201;-68
2021/07/06 00:59:20;;;;;;;2.00;1.73;;;;;;;17.76;88.84;95840.28;5040181;28;20745;-69
2021/07/06 01:01:47;;;;;;;13.20;2.40;;;;;;;17.79;89.68;95834.50;5041360;28;20304;-69
2021/07/06 01:04:13;;;;;;;5.78;2.35;;;;;;;17.71;90.49;95823.38;5041375;28;20212;-69
2021/07/06 01:06:40;;;;;;;10.35;2.50;;;;;;;17.67;91.16;95830.19;5042032;28;20225;-69
2021/07/06 01:09:06;;;;;;;5.32;2.15;;;;;;;17.65;89.76;95833.09;5040269;28;20217;-68
2021/07/06 01:11:35;;;;;;;5.07;2.25;;;;;;;17.79;89.16;95829.16;5040813;28;20201;-69
2021/07/06 01:14:03;;;;;;;3.88;2.03;;;;;;;17.70;89.19;95825.22;5040621;28;20201;-69
2021/07/06 01:16:29;;;;;;;7.25;2.40;;;;;;;17.74;88.89;95819.22;5041263;28;20209;-68
2021/07/06 01:18:56;;;;;;;5.57;2.67;;;;;;;17.71;89.56;95824.19;5040193;28;20236;-69
2021/07/06 01:21:23;;;;;;;9.73;2.67;;;;;;;17.78;89.33;95812.38;5041313;28;20201;-69
2021/07/06 01:23:51;;;;;;;9.65;2.67;;;;;;;17.78;89.34;95806.22;5040813;28;20205;-68
2021/07/06 01:26:17;;;;;;;5.57;2.20;;;;;;;17.70;87.50;95809.22;5040598;28;20201;-69
2021/07/06 01:28:44;;;;;;;10.07;2.28;;;;;;;17.75;86.99;95809.34;5039771;28;20221;-69
2021/07/06 01:31:10;;;;;;;6.32;2.33;;;;;;;17.56;89.63;95813.16;5040967;28;20201;-69
2021/07/06 01:33:38;;;;;;;11.40;2.75;;;;;;;17.56;89.00;95797.16;5040758;28;20208;-68
2021/07/06 01:36:07;;;;;;;8.65;2.33;;;;;;;17.62;88.32;95795.44;5040584;28;20205;-68
2021/07/06 01:38:34;;;;;;;5.97;2.15;;;;;;;17.61;86.74;95796.50;5039275;28;20232;-68
2021/07/06 01:41:03;;;;;;;3.35;1.85;;;;;;;17.64;86.29;95794.16;5040419;28;20201;-68
2021/07/06 01:43:30;;;;;;;8.30;2.40;;;;;;;17.64;87.83;95788.03;5040897;28;20201;-68
2021/07/06 01:45:56;;;;;;;7.72;2.35;;;;;;;17.51;88.33;95783.72;5041306;28;20212;-69
2021/07/06 01:48:23;;;;;;;5.15;2.08;;;;;;;17.51;88.51;95781.06;5040453;28;20229;-69
2021/07/06 01:50:49;;;;;;;5.43;2.20;;;;;;;17.49;88.48;95780.50;5040834;28;20213;-68
2021/07/06 01:53:21;;;;;;;5.28;2.70;;;;;;;17.31;91.21;95777.91;5040244;28;20201;-68
2021/07/06 01:55:50;;;;;;;9.23;3.25;;;;;;;17.23;93.05;95772.91;5040995;28;20205;-69
2021/07/06 01:58:19;;;;;;;6.80;2.70;;;;;;;17.29;92.48;95768.53;5039562;28;20733;-68
2021/07/06 02:00:48;;;;;;;6.97;2.97;;;;;;;17.22;93.35;95767.78;5040692;28;20943;-68
2021/07/06 02:03:15;;;;;;;12.05;3.05;;;;;;;17.16;92.51;95777.50;5039932;28;20236;-68
2021/07/06 02:05:43;;;;;;;8.50;2.92;;;;;;;17.15;94.05;95759.88;5040388;28;20847;-68
2021/07/06 02:08:11;;;;;;;5.25;2.97;;;;;;;17.20;93.77;95757.34;5039773;28;20232;-69
2021/07/06 02:10:39;;;;;;;10.40;3.15;;;;;;;17.15;93.76;95757.22;5041812;28;20208;-68
2021/07/06 02:13:09;;;;;;;4.03;2.80;;;;;;;17.26;92.97;95760.97;5041247;28;20212;-68
2021/07/06 02:15:37;;;;;;;4.43;2.70;;;;;;;17.23;93.55;95759.59;5040915;28;20209;-68
2021/07/06 02:18:05;;;;;;;5.95;2.90;;;;;;;17.19;93.07;95755.72;5040000;28;20220;-68
2021/07/06 02:20:31;;;;;;;5.95;2.67;;;;;;;17.18;93.18;95751.47;5041214;28;20213;-68
2021/07/06 02:22:58;;;;;;;7.00;3.00;;;;;;;17.31;90.51;95756.59;5040860;28;20224;-68
2021/07/06 02:25:24;;;;;;;6.40;2.40;;;;;;;17.36;89.21;95763.91;5040974;28;20205;-68
2021/07/06 02:27:51;;;;;;;7.10;2.53;;;;;;;17.32;89.98;95758.25;5039816;28;20229;-68
2021/07/06 02:30:19;;;;;;;6.07;2.58;;;;;;;17.43;88.66;95759.28;5040432;28;20208;-69
2021/07/06 02:32:48;;;;;;;6.35;2.40;;;;;;;17.52;88.50;95765.91;5038210;28;20211;-68
2021/07/06 02:35:15;;;;;;;9.32;2.30;;;;;;;17.40;88.60;95760.56;5040557;28;20307;-69
2021/07/06 02:37:43;;;;;;;4.07;2.53;;;;;;;17.34;89.97;95761.47;5039371;28;20232;-68
2021/07/06 02:40:12;;;;;;;8.15;2.67;;;;;;;17.45;88.80;95758.03;5039679;28;20205;-69
2021/07/06 02:42:39;;;;;;;7.68;2.38;;;;;;;17.27;87.48;95759.94;5040829;28;20209;-68
2021/07/06 02:45:08;;;;;;;6.63;2.75;;;;;;;17.23;88.27;95756.91;5040208;28;20197;-69
2021/07/06 02:47:35;;;;;;;4.50;2.25;;;;;;;17.26;88.34;95764.47;5040200;28;20724;-68
2021/07/06 02:50:04;;;;;;;7.75;2.80;;;;;;;17.38;88.87;95770.63;5041040;28;20212;-68
2021/07/06 02:52:31;;;;;;;6.65;2.92;;;;;;;17.26;88.64;95768.97;5041315;28;20205;-68
2021/07/06 02:54:57;;;;;;;9.75;2.58;;;;;;;17.12;88.62;95754.22;5040767;28;20204;-68
2021/07/06 02:57:36;;;;;;;6.13;2.50;;;;;;;17.07;88.55;95759.44;5039988;28;20194;-68
2021/07/06 03:00:12;;;;;;;9.05;2.40;;;;;;;17.09;88.56;95767.97;5040738;28;20208;-68
2021/07/06 03:02:40;;;;;;;3.83;2.10;;;;;;;16.85;89.67;95763.66;5039690;28;20219;-68
2021/07/06 03:05:10;;;;;;;5.22;2.40;;;;;;;16.93;90.39;95757.16;5039872;28;20292;-69
2021/07/06 03:07:37;;;;;;;4.18;2.38;;;;;;;16.98;89.13;95759.97;5039412;28;20228;-68
2021/07/06 03:10:05;;;;;;;6.50;2.55;;;;;;;16.99;88.51;95761.59;5040219;28;20292;-68
2021/07/06 03:12:32;;;;;;;5.30;2.25;;;;;;;17.00;88.41;95756.03;5039874;28;20235;-68
2021/07/06 03:14:58;;;;;;;10.05;2.65;;;;;;;17.07;87.81;95750.63;5040401;28;20197;-68
2021/07/06 03:17:25;;;;;;;8.02;2.25;;;;;;;17.04;87.63;95749.22;5038745;28;20198;-68
2021/07/06 03:19:51;;;;;;;8.68;2.13;;;;;;;17.07;87.76;95747.94;5038737;28;20205;-68
2021/07/06 03:22:19;;;;;;;5.93;2.28;;;;;;;17.12;87.33;95746.25;5039682;28;20208;-68
2021/07/06 03:24:46;;;;;;;5.57;2.22;;;;;;;17.05;86.47;95748.19;5039628;28;20211;-68
2021/07/06 03:27:12;;;;;;;10.02;2.20;;;;;;;17.03;86.40;95744.97;5039172;28;21301;-68
2021/07/06 03:29:38;;;;;;;6.97;2.33;;;;;;;17.09;87.23;95739.53;5039566;28;20205;-68
2021/07/06 03:32:06;;;;;;;8.55;2.22;;;;;;;17.05;86.67;95734.88;5039645;28;20539;-68
2021/07/06 03:34:32;;;;;;;6.90;2.05;;;;;;;16.95;86.41;95752.44;5039766;28;20208;-68
2021/07/06 03:36:59;;;;;;;6.07;1.70;;;;;;;17.04;86.53;95748.41;5038627;28;20209;-68
2021/07/06 03:39:26;;;;;;;8.98;2.55;;;;;;;17.13;86.75;95748.69;5039161;28;20220;-68
2021/07/06 03:41:53;;;;;;;7.78;2.55;;;;;;;16.97;89.23;95759.16;5039292;28;20205;-69
2021/07/06 03:44:19;;;;;;;8.38;2.40;;;;;;;16.64;89.08;95753.50;5040042;28;20208;-68
2021/07/06 03:46:46;;;;;;;7.63;2.20;;;;;;;16.84;88.03;95750.53;5039527;28;20205;-68
2021/07/06 03:49:12;;;;;;;6.10;2.30;;;;;;;16.89;88.38;95745.34;5038042;28;20229;-68
2021/07/06 03:51:38;;;;;;;12.65;2.67;;;;;;;16.97;89.54;95745.03;5039721;28;20212;-69
2021/07/06 03:54:05;;;;;;;6.93;2.67;;;;;;;17.02;89.19;95739.84;5039879;28;20209;-68
2021/07/06 03:56:33;;;;;;;10.90;2.83;;;;;;;17.14;90.37;95742.31;5039560;28;20552;-68
2021/07/06 03:58:59;;;;;;;11.35;2.80;;;;;;;16.90;89.89;95736.34;5038804;28;20233;-69
2021/07/06 04:01:25;;;;;;;8.25;3.17;;;;;;;17.10;89.74;95741.13;5039849;28;20212;-68
2021/07/06 04:03:52;;;;;;;7.53;2.88;;;;;;;17.28;88.82;95734.94;5043331;28;20567;-69
2021/07/06 04:06:18;;;;;;;7.38;3.20;;;;;;;17.28;90.09;95738.41;5042971;28;20204;-68
2021/07/06 04:08:45;;;;;;;5.88;2.92;;;;;;;17.16;91.34;95737.56;5042463;28;20236;-68
2021/07/06 04:11:11;;;;;;;5.03;2.90;;;;;;;17.34;90.01;95734.03;5042637;28;20637;-68
2021/07/06 04:13:39;;;;;;;6.53;2.85;;;;;;;17.35;89.99;95725.81;5042435;28;20208;-69
2021/07/06 04:16:05;;;;;;;12.68;2.78;;;;;;;17.36;89.39;95727.44;5042322;28;20212;-68
2021/07/06 04:18:32;;;;;;;7.60;2.92;;;;;;;17.34;89.88;95724.19;5041392;28;20225;-69
2021/07/06 04:20:58;;;;;;;5.78;3.15;;;;;;;17.34;91.27;95720.72;5042136;28;20213;-68
2021/07/06 04:23:24;;;;;;;5.93;2.50;;;;;;;17.46;90.37;95714.31;5043165;28;20551;-69
2021/07/06 04:25:51;;;;;;;7.70;2.90;;;;;;;17.61;90.57;95704.03;5042748;28;20217;-68
2021/07/06 04:28:18;;;;;;;7.03;3.20;;;;;;;17.70;90.25;95707.97;5041884;28;20232;-68
2021/07/06 04:30:46;;;;;;;8.85;2.88;;;;;;;17.64;91.54;95711.53;5043043;28;20212;-68
2021/07/06 04:33:12;;;;;;;6.85;2.78;;;;;;;17.57;92.68;95715.41;5042358;28;20201;-68
2021/07/06 04:35:39;;;;;;;7.72;2.90;;;;;;;17.62;93.14;95711.00;5042186;28;20695;-68
2021/07/06 04:38:05;;;;;;;6.93;2.80;;;;;;;17.84;92.36;95704.00;5043366;28;20255;-69
2021/07/06 04:40:32;;;;;;;4.47;2.90;;;;;;;18.03;91.61;95700.94;5042421;28;20209;-68
2021/07/06 04:43:00;;;;;;;6.38;3.10;;;;;;;18.14;91.58;95707.28;5042492;28;20205;-68
2021/07/06 04:45:26;;;;;;;7.45;2.97;;;;;;;18.32;91.07;95707.16;5042384;28;20262;-68
2021/07/06 04:47:54;;;;;;;5.15;3.03;;;;;;;18.42;92.08;95705.53;5042785;28;20229;-69
2021/07/06 04:50:21;;;;;;;5.85;3.20;;;;;;;18.45;91.98;95707.72;5041906;28;20205;-68
2021/07/06 04:52:48;;;;;;;6.32;2.80;;;;;;;18.45;91.94;95705.03;5041537;28;20209;-68
2021/07/06 04:55:16;;;;;;;8.30;3.25;;;;;;;18.39;92.74;95709.47;5041643;28;20204;-68
2021/07/06 04:57:43;;;;;;;6.25;3.08;;;;;;;18.26;93.89;95700.94;5039122;28;20268;-72
2021/07/06 05:00:10;;;;;;;10.18;3.08;;;;;;;18.42;93.79;95698.31;5038451;28;20201;-72
2021/07/06 05:02:37;;;;;;;5.10;3.05;;;;;;;18.50;92.57;95705.13;5039412;28;20213;-72
2021/07/06 05:05:06;;;;;;;4.63;3.50;;;;;;;18.64;94.00;95709.16;5039629;28;20197;-72
2021/07/06 05:07:35;;;;;;;11.48;3.80;;;;;;;18.72;93.83;95722.91;5038700;28;20221;-72
2021/07/06 05:10:01;;;;;;;7.38;3.47;;;;;;;18.67;94.18;95717.50;5039114;28;20662;-72
2021/07/06 05:12:28;;;;;;;10.07;4.50;;;;;;;18.84;93.83;95717.50;5038865;28;20536;-72
2021/07/06 05:14:54;;;;;;;14.23;4.88;;;;;;;19.05;93.32;95713.09;5038135;28;20572;-72
2021/07/06 05:17:21;;;;;;;8.68;3.45;;;;;;;19.15;93.77;95715.97;5038271;28;20236;-72
2021/07/06 05:19:47;;;;;;;3.83;3.28;;;;;;;19.12;91.81;95713.78;5038870;28;20696;-72
2021/07/06 05:22:15;;;;;;;6.25;3.53;;;;;;;19.45;90.59;95696.94;5038971;28;20212;-72
2021/07/06 05:24:42;;;;;;;7.53;3.47;;;;;;;19.51;89.92;95693.28;5039101;28;20597;-72
2021/07/06 05:27:08;;;;;;;6.20;3.38;;;;;;;19.55;89.24;95689.06;5038284;28;20212;-72
2021/07/06 05:29:35;;;;;;;6.35;3.22;;;;;;;19.67;90.14;95694.06;5038325;28;20225;-72
2021/07/06 05:32:02;;;;;;;6.55;3.22;;;;;;;19.81;90.26;95692.66;5039369;28;20570;-72
2021/07/06 05:34:28;;;;;;;7.75;3.30;;;;;;;19.77;90.61;95694.22;5038846;28;20720;-72
2021/07/06 05:36:54;;;;;;;7.93;3.47;;;;;;;19.84;89.18;95691.38;5038302;28;20201;-72
2021/07/06 05:39:22;;;;;;;8.25;3.65;;;;;;;19.85;89.79;95691.13;5038058;28;20232;-72
2021/07/06 05:41:49;;;;;;;3.58;3.08;;;;;;;20.13;88.23;95688.31;5038870;28;20206;-72
2021/07/06 05:44:16;;;;;;;4.65;2.80;;;;;;;20.29;87.76;95677.56;5038490;28;20201;-72
2021/07/06 05:46:43;;;;;;;7.45;2.85;;;;;;;20.40;86.33;95676.63;5038732;28;20212;-72
2021/07/06 05:49:09;;;;;;;4.97;2.72;;;;;;;20.66;85.45;95678.50;5037579;28;21012;-72
2021/07/06 05:51:36;;;;;;;4.65;2.72;;;;;;;20.84;85.25;95676.28;5038561;28;20673;-72
2021/07/06 05:54:02;;;;;;;4.60;2.25;;;;;;;21.08;83.75;95672.25;5038365;28;20208;-72
2021/07/06 05:56:33;;;;;;;7.38;2.47;;;;;;;21.20;83.61;95667.50;5038470;28;20209;-72
2021/07/06 05:58:59;;;;;;;4.80;2.20;;;;;;;21.23;83.68;95669.69;5037583;28;20332;-72
2021/07/06 06:01:26;;;;;;;6.03;2.15;;;;;;;21.44;82.99;95664.19;5038213;28;20202;-72
2021/07/06 06:03:52;;;;;;;6.43;1.98;;;;;;;21.16;85.66;95658.38;5038328;28;20605;-72
2021/07/06 06:06:19;;;;;;;7.82;1.80;;;;;;;21.49;83.71;95664.25;5038244;28;20201;-72
2021/07/06 06:08:45;;;;;;;4.70;1.90;;;;;;;21.64;84.00;95661.72;5037408;28;20233;-72
2021/07/06 06:11:12;;;;;;;3.50;1.55;;;;;;;21.72;84.49;95673.81;5037996;28;20201;-72
2021/07/06 06:13:40;;;;;;;4.68;2.10;;;;;;;21.23;84.69;95680.41;5038134;28;20212;-72
2021/07/06 06:16:07;;;;;;;3.75;1.50;;;;;;;21.49;84.84;95674.19;5038396;28;20201;-72
2021/07/06 06:18:33;;;;;;;4.82;2.05;;;;;;;21.74;84.50;95677.88;5037353;28;20311;-72
2021/07/06 06:21:00;;;;;;;3.58;1.85;;;;;;;21.73;84.76;95673.56;5037937;28;20271;-72
2021/07/06 06:23:26;;;;;;;2.38;1.60;;;;;;;21.53;83.55;95669.94;5037974;28;20220;-72
2021/07/06 06:25:53;;;;;;;2.10;1.50;;;;;;;21.75;82.32;95668.72;5037365;28;20212;-72
2021/07/06 06:28:19;;;;;;;4.93;1.90;;;;;;;21.95;84.05;95668.06;5036614;28;20239;-71
2021/07/06 06:30:47;;;;;;;3.58;1.55;;;;;;;22.07;82.86;95667.59;5037747;28;20212;-72
2021/07/06 06:33:13;;;;;;;3.78;2.10;;;;;;;21.82;85.62;95660.47;5037967;28;20208;-72
2021/07/06 06:35:41;;;;;;;2.47;2.10;;;;;;;22.05;84.26;95664.34;5038591;28;20209;-72
2021/07/06 06:38:07;;;;;;;7.55;2.47;;;;;;;22.26;83.17;95650.00;5036460;28;20246;-71
2021/07/06 06:40:34;;;;;;;6.28;2.10;;;;;;;22.02;85.68;95657.88;5037157;28;20681;-72
2021/07/06 06:43:00;;;;;;;3.15;2.20;;;;;;;22.43;84.30;95657.81;5037738;28;20296;-72
2021/07/06 06:45:30;;;;;;;7.63;2.13;;;;;;;22.38;85.50;95650.56;5037730;28;20204;-72
2021/07/06 06:47:58;;;;;;;4.22;2.00;;;;;;;22.59;84.32;95641.47;5036133;28;20224;-72
2021/07/06 06:50:25;;;;;;;3.45;2.28;;;;;;;22.45;86.14;95640.38;5037590;28;20205;-72
2021/07/06 06:52:51;;;;;;;2.53;2.00;;;;;;;22.36;86.18;95639.25;5037278;28;20205;-72
2021/07/06 06:55:18;;;;;;;3.95;1.92;;;;;;;22.75;82.51;95632.38;5037154;28;20205;-72
2021/07/06 06:57:44;;;;;;;2.50;1.70;;;;;;;22.96;81.98;95628.63;5036686;28;20240;-72
2021/07/06 07:00:13;;;;;;;1.83;1.40;;;;;;;23.25;80.87;95633.25;5037256;28;20917;-72
2021/07/06 07:02:39;;;;;;;4.07;1.58;;;;;;;23.34;79.74;95634.31;5036917;28;20209;-72
2021/07/06 07:05:11;;;;;;;3.72;1.60;;;;;;;23.66;77.82;95646.41;5037034;28;20564;-72
2021/07/06 07:07:38;;;;;;;3.38;1.30;;;;;;;23.85;76.39;95643.97;5035863;28;20235;-72
2021/07/06 07:10:06;;;;;;;3.30;1.38;;;;;;;23.84;77.87;95642.34;5035913;28;20232;-72
2021/07/06 07:12:35;;;;;;;2.45;1.40;;;;;;;23.97;75.33;95645.28;5035737;28;20201;-72
2021/07/06 07:15:01;;;;;;;2.58;1.63;;;;;;;24.05;77.08;95645.50;5036293;28;20480;-72
2021/07/06 07:17:28;;;;;;;3.95;1.20;;;;;;;24.35;77.35;95645.41;5035633;28;20211;-72
2021/07/06 07:19:54;;;;;;;2.75;1.40;;;;;;;24.26;76.30;95638.16;5036442;28;20457;-72
2021/07/06 07:22:22;;;;;;;1.88;1.30;;;;;;;24.38;75.84;95639.50;5035899;28;20910;-72
2021/07/06 07:24:48;;;;;;;1.50;1.40;;;;;;;24.29;74.77;95640.31;5036402;28;20201;-72
2021/07/06 07:27:15;;;;;;;3.22;1.38;;;;;;;24.57;73.92;95638.56;5035482;28;20209;-72
2021/07/06 07:29:41;;;;;;;2.15;1.40;;;;;;;24.69;73.92;95636.38;5035818;28;20225;-72
2021/07/06 07:32:08;;;;;;;1.60;1.30;;;;;;;24.44;79.02;95637.56;5036656;28;20213;-72
2021/07/06 07:34:35;;;;;;;3.85;1.75;;;;;;;24.59;75.67;95633.72;5036071;28;20259;-72
2021/07/06 07:37:02;;;;;;;2.28;1.30;;;;;;;24.92;75.58;95632.16;5035011;28;20229;-72
2021/07/06 07:39:32;;;;;;;3.00;1.65;;;;;;;24.85;75.60;95624.41;5036566;28;20220;-72
2021/07/06 07:41:58;;;;;;;4.50;1.40;;;;;;;24.87;75.09;95616.03;5036364;28;20204;-72
2021/07/06 07:44:25;;;;;;;5.25;1.20;;;;;;;25.01;74.26;95615.09;5036688;28;20216;-72
2021/07/06 07:46:51;;;;;;;4.05;1.50;;;;;;;25.01;75.05;95607.00;5036262;28;20209;-72
2021/07/06 07:49:17;;;;;;;4.20;1.35;;;;;;;25.22;73.59;95624.69;5035766;28;20231;-72
2021/07/06 07:51:44;;;;;;;1.45;1.20;;;;;;;25.33;73.42;95620.81;5036706;28;20205;-72
2021/07/06 07:54:11;;;;;;;4.28;1.20;;;;;;;25.26;72.85;95613.03;5036353;28;20243;-72
2021/07/06 07:56:40;;;;;;;4.15;1.95;;;;;;;25.64;74.44;95620.25;5036550;28;20224;-72
2021/07/06 07:59:07;;;;;;;4.53;1.23;;;;;;;25.70;70.04;95621.88;5035865;28;20221;-72
2021/07/06 08:01:33;;;;;;;1.50;1.40;;;;;;;26.04;71.14;95617.97;5036621;28;20212;-72
2021/07/06 08:04:00;;;;;;;1.15;1.00;;;;;;;26.43;69.23;95612.41;5033331;28;20606;-72
2021/07/06 08:06:26;;;;;;;1.95;1.20;;;;;;;26.02;71.28;95608.56;5035662;28;20201;-73
2021/07/06 08:08:53;;;;;;;2.00;1.23;;;;;;;26.52;67.38;95603.34;5034488;28;20236;-72
2021/07/06 08:11:19;;;;;;;3.47;1.20;;;;;;;26.56;70.15;95593.56;5035314;28;20200;-73
2021/07/06 08:13:47;;;;;;;5.45;1.27;;;;;;;26.73;67.64;95589.25;5035108;28;20205;-74
2021/07/06 08:16:14;;;;;;;1.70;1.20;;;;;;;26.72;68.54;95584.16;5035201;28;20297;-74
2021/07/06 08:18:40;;;;;;;3.35;1.10;;;;;;;26.83;68.44;95577.47;5032043;28;20225;-74
2021/07/06 08:21:07;;;;;;;3.05;0.90;;;;;;;27.00;65.13;95567.78;5034477;28;20201;-74
2021/07/06 08:23:34;;;;;;;6.38;1.20;;;;;;;27.07;67.59;95579.03;5034619;28;20201;-74
2021/07/06 08:26:02;;;;;;;1.42;1.13;;;;;;;27.34;67.25;95584.53;5035336;28;20212;-74
2021/07/06 08:28:28;;;;;;;1.40;0.98;;;;;;;27.33;65.68;95578.31;5034143;28;20312;-74
2021/07/06 08:30:56;;;;;;;1.95;0.90;;;;;;;27.61;63.19;95584.63;5034478;28;20225;-75
2021/07/06 08:33:23;;;;;;;1.70;0.85;;;;;;;27.51;65.93;95590.16;5035331;28;20332;-74
2021/07/06 08:35:49;;;;;;;2.28;1.00;;;;;;;27.60;65.20;95589.25;5033853;28;20252;-74
2021/07/06 08:38:17;;;;;;;2.72;0.90;;;;;;;27.57;67.61;95589.84;5033342;28;20221;-74
2021/07/06 08:40:44;;;;;;;1.25;1.00;;;;;;;27.72;67.72;95589.53;5035620;28;20212;-74
2021/07/06 08:43:11;;;;;;;4.10;1.05;;;;;;;27.90;66.61;95591.38;5035345;28;20212;-74
2021/07/06 08:45:38;;;;;;;1.23;0.93;;;;;;;28.03;63.13;95587.88;5035552;28;20205;-74
2021/07/06 08:48:08;;;;;;;2.85;0.90;;;;;;;28.36;62.16;95580.16;5038550;28;20228;-69
2021/07/06 08:50:35;;;;;;;1.70;1.00;;;;;;;28.27;60.46;95585.78;5042119;28;20225;-69
2021/07/06 08:53:02;;;;;;;1.30;0.80;;;;;;;28.45;64.12;95586.47;5041644;28;20209;-69
2021/07/06 08:55:28;;;;;;;2.08;0.98;;;;;;;28.24;66.44;95594.53;5041949;28;20232;-69
2021/07/06 08:57:55;;;;;;;0.95;0.85;;;;;;;28.58;61.71;95591.06;5041137;28;20233;-69
2021/07/06 09:00:23;;;;;;;2.53;0.90;;;;;;;28.54;60.92;95573.81;5041440;28;20288;-69
2021/07/06 09:02:57;;;;;;;1.58;0.90;;;;;;;28.45;58.76;95570.22;5041545;28;20209;-69
2021/07/06 09:05:26;;;;;;;1.98;1.00;;;;;;;28.84;63.25;95572.34;5041347;28;20572;-69
2021/07/06 09:07:52;;;;;;;1.48;0.90;;;;;;;28.62;62.85;95564.94;5040649;28;20221;-69
2021/07/06 09:10:20;;;;;;;2.67;0.80;;;;;;;28.81;61.35;95568.34;5041614;28;20225;-69
2021/07/06 09:12:47;;;;;;;3.15;0.90;;;;;;;28.93;58.98;95568.59;5041681;28;20595;-69
2021/07/06 09:15:24;;;;;;;1.52;0.90;;;;;;;29.14;61.78;95572.44;5040295;28;20213;-68
2021/07/06 09:18:10;;;;;;;4.10;0.80;;;;;;;29.14;55.86;95577.88;5036966;28;20875;-69
2021/07/06 09:20:39;;;;;;;2.58;0.80;;;;;;;29.14;56.79;95577.88;5037155;28;20212;-69
2021/07/06 09:23:20;;;;;;;1.27;0.85;;;;;;;29.36;59.16;95580.63;5038566;28;20569;-69
2021/07/06 09:25:47;;;;;;;1.20;1.10;;;;;;;29.28;56.88;95597.63;5038653;28;20205;-69
2021/07/06 09:28:24;;;;;;;0.75;0.68;;;;;;;29.53;52.60;95599.72;5038061;28;20429;-68
2021/07/06 09:30:51;;;;;;;2.50;0.70;;;;;;;29.74;51.70;95610.56;5038936;28;20597;-69
2021/07/06 09:33:26;;;;;;;1.95;0.70;;;;;;;29.77;55.50;95604.53;5040150;28;20568;-69
2021/07/06 09:35:53;;;;;;;4.00;0.70;;;;;;;29.84;52.91;95601.34;5039881;28;20212;-69
2021/07/06 09:38:20;;;;;;;7.03;0.90;;;;;;;29.74;54.63;95607.06;5039219;28;20228;-69
2021/07/06 09:40:47;;;;;;;1.13;0.90;;;;;;;29.91;53.30;95618.81;5039860;28;20703;-69
2021/07/06 09:43:20;;;;;;;1.85;0.80;;;;;;;30.24;56.02;95622.81;5040210;28;20205;-69
2021/07/06 09:45:52;;;;;;;2.97;0.98;;;;;;;30.34;55.76;95626.06;5039980;28;20653;-69
2021/07/06 09:48:19;;;;;;;1.00;0.80;;;;;;;30.25;53.59;95616.28;5039692;28;20221;-70
2021/07/06 09:50:46;;;;;;;1.85;0.70;;;;;;;30.35;52.89;95621.44;5039931;28;20639;-69
2021/07/06 09:53:28;;;;;;;1.63;0.70;;;;;;;30.04;52.23;95631.53;5040888;28;20772;-69
2021/07/06 09:55:55;;;;;;;0.70;0.70;;;;;;;29.88;52.12;95629.53;5040264;28;20212;-69
2021/07/06 09:58:22;;;;;;;1.23;0.80;;;;;;;30.52;55.41;95632.38;5039055;28;20605;-69
2021/07/06 10:00:49;;;;;;;1.77;0.90;;;;;;;30.21;51.37;95639.78;5039925;28;20204;-69
2021/07/06 10:03:16;;;;;;;1.92;0.77;;;;;;;30.61;49.50;95638.66;5039613;28;20237;-69
2021/07/06 10:05:44;;;;;;;0.73;0.65;;;;;;;30.86;51.06;95644.94;5039501;28;20212;-69
2021/07/06 10:08:11;;;;;;;2.05;1.00;;;;;;;30.83;52.31;95651.03;5039573;28;20220;-69
2021/07/06 10:10:39;;;;;;;1.50;0.70;;;;;;;30.47;52.52;95651.56;5040058;28;20236;-69
2021/07/06 10:13:06;;;;;;;0.68;0.68;;;;;;;30.71;48.11;95657.41;5039392;28;20220;-69
2021/07/06 10:15:34;;;;;;;1.55;0.70;;;;;;;31.00;46.62;95655.75;5039822;28;20205;-69
2021/07/06 10:18:00;;;;;;;0.93;0.60;;;;;;;31.29;49.73;95642.28;5038734;28;20229;-69
2021/07/06 10:20:28;;;;;;;1.08;0.60;;;;;;;31.33;52.70;95641.34;5040077;28;20202;-69
2021/07/06 10:22:57;;;;;;;5.60;0.80;;;;;;;31.38;49.09;95651.25;5040449;28;20208;-69
2021/07/06 10:25:25;;;;;;;1.65;0.80;;;;;;;31.14;48.93;95649.03;5039182;28;20209;-69
2021/07/06 10:27:56;;;;;;;1.13;0.70;;;;;;;30.82;50.12;95655.97;5038710;28;20312;-69
2021/07/06 10:30:26;;;;;;;1.20;0.90;;;;;;;31.05;54.31;95647.44;5038642;28;20232;-68
2021/07/06 10:32:55;;;;;;;1.83;1.30;;;;;;;30.74;57.39;95656.75;5039002;28;20216;-69
2021/07/06 10:35:49;;;;;;;4.38;1.23;;;;;;;31.08;60.05;95647.56;5039710;28;20205;-69
2021/07/06 10:38:43;;;;;;;2.53;0.95;;;;;;;30.83;56.90;95658.41;5037911;28;20224;-68
2021/07/06 10:41:20;;;;;;;1.30;1.00;;;;;;;30.44;55.66;95657.66;5038970;28;20251;-69
2021/07/06 10:43:56;;;;;;;1.95;1.08;;;;;;;30.26;57.72;95642.34;5039417;28;20778;-69
2021/07/06 10:46:45;;;;;;;2.83;1.35;;;;;;;30.39;56.32;95653.09;5038728;28;20208;-69
2021/07/06 10:49:15;;;;;;;1.90;1.00;;;;;;;30.34;57.05;95647.81;5038595;28;20326;-69
2021/07/06 10:51:52;;;;;;;1.98;0.98;;;;;;;30.54;57.57;95650.00;5039123;28;20715;-69
2021/07/06 10:54:28;;;;;;;6.53;1.33;;;;;;;30.55;55.43;95650.78;5038634;28;20670;-68
2021/07/06 10:56:56;;;;;;;3.13;1.00;;;;;;;30.52;58.84;95648.72;5038816;28;20216;-68
2021/07/06 10:59:26;;;;;;;2.60;1.05;;;;;;;30.53;59.28;95653.81;5039494;28;20608;-69
2021/07/06 11:01:57;;;;;;;1.80;1.10;;;;;;;30.10;57.98;95654.72;5038602;28;20236;-68
2021/07/06 11:05:09;;;;;;;3.50;1.08;;;;;;;30.69;56.30;95646.84;5040379;28;20209;-69
2021/07/06 11:07:57;;;;;;;1.13;1.02;;;;;;;30.98;58.22;95644.34;5037548;28;20723;-69
2021/07/06 11:10:43;;;;;;;2.60;0.93;;;;;;;30.56;56.50;95649.69;5038495;28;20353;-68
2021/07/06 11:13:18;;;;;;;4.72;1.00;;;;;;;30.92;57.63;95646.41;5040859;28;21100;-68
2021/07/06 11:15:46;;;;;;;2.53;1.05;;;;;;;30.86;55.05;95644.94;5039367;28;20213;-69
2021/07/06 11:18:13;;;;;;;1.55;1.10;;;;;;;31.00;53.10;95639.41;5038098;28;20221;-68
2021/07/06 11:20:42;;;;;;;1.85;0.88;;;;;;;31.28;56.60;95625.16;5038243;28;20659;-68
2021/07/06 11:23:11;;;;;;;1.95;0.80;;;;;;;31.45;52.06;95625.16;5038055;28;20212;-69
2021/07/06 11:25:46;;;;;;;1.75;1.17;;;;;;;31.42;49.98;95630.47;5038480;28;20205;-69
2021/07/06 11:28:14;;;;;;;0.90;0.85;;;;;;;31.33;50.51;95633.16;5037707;28;20216;-69
2021/07/06 11:30:47;;;;;;;1.15;0.88;;;;;;;31.69;48.40;95645.34;5038157;28;20248;-68
2021/07/06 11:33:16;;;;;;;1.80;0.95;;;;;;;31.33;50.03;95638.63;5038688;28;20190;-68
2021/07/06 11:35:44;;;;;;;1.25;0.88;;;;;;;31.94;50.77;95638.22;5038047;28;20236;-68
2021/07/06 11:38:12;;;;;;;2.67;1.00;;;;;;;31.98;51.90;95631.81;5038157;28;20232;-68